createdAt,value
2022-12-18T00:00:44.824Z,-8.951
2022-12-18T00:01:44.984Z,-8.986
2022-12-18T00:02:45.040Z,-9
2022-12-18T00:03:45.738Z,-9.033
2022-12-18T00:04:44.960Z,-9.015
2022-12-18T00:05:44.992Z,-9.027
2022-12-18T00:06:45.027Z,-9.042
2022-12-18T00:07:45.050Z,-9.056
2022-12-18T00:08:45.090Z,-9.102
2022-12-18T00:09:45.119Z,-9.117
2022-12-18T00:10:45.154Z,-9.137
2022-12-18T00:11:45.190Z,-9.166
2022-12-18T00:12:45.203Z,-9.177
2022-12-18T00:13:45.237Z,-9.148
2022-12-18T00:14:45.264Z,-9.121
2022-12-18T00:15:45.332Z,-9.084
2022-12-18T00:16:45.339Z,-9.086
2022-12-18T00:17:45.374Z,-9.104
2022-12-18T00:18:45.402Z,-9.084
2022-12-18T00:19:45.425Z,-9.154
2022-12-18T00:20:45.464Z,-9.168
2022-12-18T00:21:45.490Z,-9.183
2022-12-18T00:22:45.556Z,-9.168
2022-12-18T00:23:45.563Z,-9.197
2022-12-18T00:24:45.604Z,-9.183
2022-12-18T00:25:45.624Z,-9.15
2022-12-18T00:26:45.659Z,-9.179
2022-12-18T00:27:45.709Z,-9.168
2022-12-18T00:28:45.728Z,-9.15
2022-12-18T00:29:45.762Z,-9.165
2022-12-18T00:30:45.786Z,-9.179
2022-12-18T00:31:45.876Z,-9.207
2022-12-18T00:32:45.850Z,-9.222
2022-12-18T00:33:45.881Z,-9.222
2022-12-18T00:34:45.907Z,-9.222
2022-12-18T00:35:45.949Z,-9.288
2022-12-18T00:36:45.984Z,-9.28
2022-12-18T00:37:46.031Z,-9.295
2022-12-18T00:38:46.057Z,-9.309
2022-12-18T00:39:46.092Z,-9.309
2022-12-18T00:40:46.116Z,-9.377
2022-12-18T00:41:46.151Z,-9.406
2022-12-18T00:42:46.195Z,-9.392
2022-12-18T00:43:46.206Z,-9.406
2022-12-18T00:44:46.225Z,-9.406
2022-12-18T00:45:46.289Z,-9.429
2022-12-18T00:46:46.294Z,-9.415
2022-12-18T00:47:46.337Z,-9.384
2022-12-18T00:48:46.367Z,-9.34
2022-12-18T00:49:46.400Z,-9.34
2022-12-18T00:50:46.425Z,-9.356
2022-12-18T00:51:46.445Z,-9.371
2022-12-18T00:52:46.479Z,-9.356
2022-12-18T00:53:46.507Z,-9.379
2022-12-18T00:54:46.541Z,-9.374
2022-12-18T00:55:46.584Z,-9.396
2022-12-18T00:56:50.010Z,-9.374
2022-12-18T00:57:46.625Z,-9.411
2022-12-18T00:58:46.660Z,-9.411
2022-12-18T00:59:46.682Z,-9.411
2022-12-18T01:00:46.785Z,-9.453
2022-12-18T01:01:47.144Z,-9.489
2022-12-18T01:02:46.898Z,-9.458
2022-12-18T01:03:46.834Z,-9.44
2022-12-18T01:04:46.847Z,-9.443
2022-12-18T01:05:46.881Z,-9.44
2022-12-18T01:06:46.911Z,-9.462
2022-12-18T01:07:46.928Z,-9.433
2022-12-18T01:08:46.971Z,-9.409
2022-12-18T01:09:46.988Z,-9.38
2022-12-18T01:10:47.011Z,-9.359
2022-12-18T01:11:47.035Z,-9.368
2022-12-18T01:12:47.115Z,-9.386
2022-12-18T01:13:47.091Z,-9.425
2022-12-18T01:14:47.123Z,-9.382
2022-12-18T01:15:47.164Z,-9.417
2022-12-18T01:16:47.265Z,-9.425
2022-12-18T01:17:47.253Z,-9.372
2022-12-18T01:18:47.272Z,-9.343
2022-12-18T01:19:47.308Z,-9.3
2022-12-18T01:20:47.336Z,-9.271
2022-12-18T01:21:47.362Z,-9.325
2022-12-18T01:22:47.392Z,-9.31
2022-12-18T01:23:47.429Z,-9.342
2022-12-18T01:24:47.460Z,-9.313
2022-12-18T01:25:47.489Z,-9.313
2022-12-18T01:26:47.522Z,-9.291
2022-12-18T01:27:47.566Z,-9.306
2022-12-18T01:28:47.589Z,-9.323
2022-12-18T01:29:47.612Z,-9.369
2022-12-18T01:30:47.655Z,-9.32
2022-12-18T01:31:47.772Z,-9.32
2022-12-18T01:32:47.725Z,-9.349
2022-12-18T01:33:47.748Z,-9.363
2022-12-18T01:34:47.775Z,-9.349
2022-12-18T01:35:47.810Z,-9.363
2022-12-18T01:36:47.835Z,-9.392
2022-12-18T01:37:47.888Z,-9.421
2022-12-18T01:38:47.931Z,-9.377
2022-12-18T01:39:47.931Z,-9.377
2022-12-18T01:40:47.970Z,-9.339
2022-12-18T01:41:48.004Z,-9.339
2022-12-18T01:42:48.027Z,-9.386
2022-12-18T01:43:48.082Z,-9.425
2022-12-18T01:44:48.114Z,-9.397
2022-12-18T01:45:48.220Z,-9.382
2022-12-18T01:46:48.167Z,-9.397
2022-12-18T01:47:48.201Z,-9.382
2022-12-18T01:48:48.239Z,-9.329
2022-12-18T01:49:48.301Z,-9.315
2022-12-18T01:50:48.317Z,-9.286
2022-12-18T01:51:48.349Z,-9.289
2022-12-18T01:52:48.411Z,-9.302
2022-12-18T01:53:48.403Z,-9.316
2022-12-18T01:54:48.436Z,-9.329
2022-12-18T01:55:48.465Z,-9.343
2022-12-18T01:56:48.502Z,-9.355
2022-12-18T01:57:48.556Z,-9.369
2022-12-18T01:58:48.597Z,-9.412
2022-12-18T01:59:48.593Z,-9.412
2022-12-18T02:00:48.750Z,-9.441
2022-12-18T02:01:48.770Z,-9.438
2022-12-18T02:02:48.775Z,-9.438
2022-12-18T02:03:48.735Z,-9.421
2022-12-18T02:04:49.710Z,-9.452
2022-12-18T02:05:48.773Z,-9.423
2022-12-18T02:06:48.789Z,-9.446
2022-12-18T02:07:48.828Z,-9.461
2022-12-18T02:08:48.857Z,-9.432
2022-12-18T02:09:48.895Z,-9.403
2022-12-18T02:10:48.923Z,-9.38
2022-12-18T02:11:48.948Z,-9.38
2022-12-18T02:12:48.985Z,-9.415
2022-12-18T02:13:49.013Z,-9.398
2022-12-18T02:14:49.054Z,-9.447
2022-12-18T02:15:49.082Z,-9.46
2022-12-18T02:16:49.219Z,-9.474
2022-12-18T02:17:49.136Z,-9.439
2022-12-18T02:18:49.208Z,-9.468
2022-12-18T02:19:49.191Z,-9.483
2022-12-18T02:20:49.230Z,-9.497
2022-12-18T02:21:49.256Z,-9.55
2022-12-18T02:22:49.271Z,-9.513
2022-12-18T02:23:49.332Z,-9.58
2022-12-18T02:24:49.362Z,-9.594
2022-12-18T02:25:49.365Z,-9.572
2022-12-18T02:26:49.403Z,-9.587
2022-12-18T02:27:49.429Z,-9.587
2022-12-18T02:28:49.465Z,-9.616
2022-12-18T02:29:54.363Z,-9.645
2022-12-18T02:30:49.544Z,-9.66
2022-12-18T02:31:49.547Z,-9.631
2022-12-18T02:32:49.580Z,-9.631
2022-12-18T02:33:49.617Z,-9.602
2022-12-18T02:34:49.641Z,-9.616
2022-12-18T02:35:49.671Z,-9.616
2022-12-18T02:36:49.708Z,-9.616
2022-12-18T02:37:49.758Z,-9.631
2022-12-18T02:38:49.767Z,-9.68
2022-12-18T02:39:49.796Z,-9.677
2022-12-18T02:40:49.837Z,-9.7
2022-12-18T02:41:49.859Z,-9.696
2022-12-18T02:42:49.923Z,-9.711
2022-12-18T02:43:49.932Z,-9.726
2022-12-18T02:44:49.953Z,-9.763
2022-12-18T02:45:50.041Z,-9.757
2022-12-18T02:46:50.010Z,-9.792
2022-12-18T02:47:50.062Z,-9.75
2022-12-18T02:48:50.078Z,-9.732
2022-12-18T02:49:50.142Z,-9.717
2022-12-18T02:50:50.136Z,-9.721
2022-12-18T02:51:50.175Z,-9.752
2022-12-18T02:52:50.199Z,-9.744
2022-12-18T02:53:50.219Z,-9.746
2022-12-18T02:54:51.401Z,-9.754
2022-12-18T02:55:50.317Z,-9.687
2022-12-18T02:56:50.328Z,-9.658
2022-12-18T02:57:50.356Z,-9.672
2022-12-18T02:58:50.385Z,-9.733
2022-12-18T02:59:50.421Z,-9.686
2022-12-18T03:00:50.504Z,-9.676
2022-12-18T03:01:50.600Z,-9.647
2022-12-18T03:02:50.572Z,-9.632
2022-12-18T03:03:50.540Z,-9.618
2022-12-18T03:04:50.561Z,-9.632
2022-12-18T03:05:50.595Z,-9.647
2022-12-18T03:06:50.633Z,-9.632
2022-12-18T03:07:50.656Z,-9.632
2022-12-18T03:08:50.689Z,-9.632
2022-12-18T03:09:50.722Z,-9.621
2022-12-18T03:10:50.752Z,-9.656
2022-12-18T03:11:50.792Z,-9.621
2022-12-18T03:12:50.851Z,-9.592
2022-12-18T03:13:50.854Z,-9.575
2022-12-18T03:14:50.880Z,-9.627
2022-12-18T03:15:50.906Z,-9.592
2022-12-18T03:16:51.015Z,-9.592
2022-12-18T03:17:50.980Z,-9.627
2022-12-18T03:18:51.008Z,-9.581
2022-12-18T03:19:51.048Z,-9.596
2022-12-18T03:20:51.064Z,-9.555
2022-12-18T03:21:51.106Z,-9.587
2022-12-18T03:22:51.146Z,-9.555
2022-12-18T03:23:51.176Z,-9.573
2022-12-18T03:24:51.200Z,-9.564
2022-12-18T03:25:51.233Z,-9.589
2022-12-18T03:26:51.265Z,-9.618
2022-12-18T03:27:51.318Z,-9.655
2022-12-18T03:28:51.328Z,-9.655
2022-12-18T03:29:51.367Z,-9.647
2022-12-18T03:30:51.478Z,-9.618
2022-12-18T03:31:51.424Z,-9.603
2022-12-18T03:32:51.506Z,-9.559
2022-12-18T03:33:51.488Z,-9.544
2022-12-18T03:34:51.516Z,-9.544
2022-12-18T03:35:51.549Z,-9.538
2022-12-18T03:36:51.585Z,-9.538
2022-12-18T03:37:51.635Z,-9.524
2022-12-18T03:38:51.669Z,-9.524
2022-12-18T03:39:51.669Z,-9.51
2022-12-18T03:40:51.695Z,-9.496
2022-12-18T03:41:51.732Z,-9.496
2022-12-18T03:42:51.763Z,-9.481
2022-12-18T03:43:51.791Z,-9.496
2022-12-18T03:44:51.819Z,-9.496
2022-12-18T03:45:51.882Z,-9.481
2022-12-18T03:46:51.869Z,-9.418
2022-12-18T03:47:51.900Z,-9.421
2022-12-18T03:48:51.921Z,-9.439
2022-12-18T03:49:51.990Z,-9.418
2022-12-18T03:50:51.992Z,-9.403
2022-12-18T03:51:52.030Z,-9.389
2022-12-18T03:52:52.057Z,-9.389
2022-12-18T03:53:52.091Z,-9.389
2022-12-18T03:54:52.145Z,-9.389
2022-12-18T03:55:52.165Z,-9.425
2022-12-18T03:56:52.189Z,-9.425
2022-12-18T03:57:52.219Z,-9.397
2022-12-18T03:58:52.240Z,-9.406
2022-12-18T03:59:52.280Z,-9.37
2022-12-18T04:00:52.329Z,-9.388
2022-12-18T04:01:52.456Z,-9.374
2022-12-18T04:02:52.372Z,-9.374
2022-12-18T04:03:52.468Z,-9.388
2022-12-18T04:04:52.440Z,-9.368
2022-12-18T04:05:52.477Z,-9.354
2022-12-18T04:06:52.521Z,-9.354
2022-12-18T04:07:52.516Z,-9.311
2022-12-18T04:08:52.553Z,-9.275
2022-12-18T04:09:52.587Z,-9.339
2022-12-18T04:10:52.614Z,-9.321
2022-12-18T04:11:52.685Z,-9.312
2022-12-18T04:12:52.670Z,-9.326
2022-12-18T04:13:52.706Z,-9.34
2022-12-18T04:14:52.756Z,-9.369
2022-12-18T04:15:52.898Z,-9.397
2022-12-18T04:16:52.829Z,-9.383
2022-12-18T04:17:52.875Z,-9.383
2022-12-18T04:18:52.882Z,-9.397
2022-12-18T04:19:52.924Z,-9.388
2022-12-18T04:20:52.947Z,-9.374
2022-12-18T04:21:52.984Z,-9.36
2022-12-18T04:22:53.041Z,-9.346
2022-12-18T04:23:53.040Z,-9.349
2022-12-18T04:24:53.072Z,-9.349
2022-12-18T04:25:53.103Z,-9.335
2022-12-18T04:26:53.136Z,-9.321
2022-12-18T04:27:53.183Z,-9.339
2022-12-18T04:28:53.235Z,-9.335
2022-12-18T04:29:53.234Z,-9.349
2022-12-18T04:30:53.312Z,-9.349
2022-12-18T04:31:53.300Z,-9.349
2022-12-18T04:32:53.320Z,-9.349
2022-12-18T04:33:53.365Z,-9.335
2022-12-18T04:34:53.421Z,-9.321
2022-12-18T04:35:53.416Z,-9.293
2022-12-18T04:36:53.439Z,-9.298
2022-12-18T04:37:53.476Z,-9.326
2022-12-18T04:38:53.503Z,-9.34
2022-12-18T04:39:53.568Z,-9.34
2022-12-18T04:40:53.573Z,-9.326
2022-12-18T04:41:53.596Z,-9.318
2022-12-18T04:42:53.668Z,-9.347
2022-12-18T04:43:53.662Z,-9.375
2022-12-18T04:44:53.687Z,-9.375
2022-12-18T04:45:53.711Z,-9.389
2022-12-18T04:46:53.775Z,-9.366
2022-12-18T04:47:53.768Z,-9.338
2022-12-18T04:48:53.825Z,-9.338
2022-12-18T04:49:53.833Z,-9.373
2022-12-18T04:50:53.868Z,-9.454
2022-12-18T04:51:53.896Z,-9.454
2022-12-18T04:52:53.933Z,-9.454
2022-12-18T04:53:53.980Z,-9.482
2022-12-18T04:54:54.025Z,-9.564
2022-12-18T04:55:54.022Z,-9.564
2022-12-18T04:56:54.060Z,-9.497
2022-12-18T04:57:54.099Z,-9.497
2022-12-18T04:58:54.135Z,-9.468
2022-12-18T04:59:54.195Z,-9.468
2022-12-18T05:00:54.186Z,-9.482
2022-12-18T05:01:54.331Z,-9.497
2022-12-18T05:02:54.346Z,-9.511
2022-12-18T05:03:54.309Z,-9.539
2022-12-18T05:04:54.319Z,-9.489
2022-12-18T05:05:54.360Z,-9.475
2022-12-18T05:06:54.379Z,-9.503
2022-12-18T05:07:54.415Z,-9.546
2022-12-18T05:08:54.444Z,-9.598
2022-12-18T05:09:54.474Z,-9.617
2022-12-18T05:10:54.524Z,-9.634
2022-12-18T05:11:54.532Z,-9.631
2022-12-18T05:12:54.565Z,-9.653
2022-12-18T05:13:54.602Z,-9.631
2022-12-18T05:14:54.628Z,-9.645
2022-12-18T05:15:54.698Z,-9.645
2022-12-18T05:16:59.252Z,-9.659
2022-12-18T05:17:54.728Z,-9.712
2022-12-18T05:18:54.784Z,-9.712
2022-12-18T05:19:54.792Z,-9.726
2022-12-18T05:20:54.829Z,-9.726
2022-12-18T05:21:54.855Z,-9.712
2022-12-18T05:22:54.884Z,-9.697
2022-12-18T05:23:54.936Z,-9.683
2022-12-18T05:24:54.972Z,-9.683
2022-12-18T05:25:54.965Z,-9.697
2022-12-18T05:26:55.003Z,-9.697
2022-12-18T05:27:55.045Z,-9.715
2022-12-18T05:28:55.078Z,-9.761
2022-12-18T05:29:55.138Z,-9.747
2022-12-18T05:30:55.213Z,-9.747
2022-12-18T05:31:55.244Z,-9.747
2022-12-18T05:32:55.203Z,-9.73
2022-12-18T05:33:55.233Z,-9.732
2022-12-18T05:34:55.253Z,-9.761
2022-12-18T05:35:55.282Z,-9.79
2022-12-18T05:36:55.320Z,-9.761
2022-12-18T05:37:55.369Z,-9.776
2022-12-18T05:38:55.374Z,-9.813
2022-12-18T05:39:55.406Z,-9.827
2022-12-18T05:40:55.438Z,-9.841
2022-12-18T05:41:55.467Z,-9.8
2022-12-18T05:42:55.507Z,-9.749
2022-12-18T05:43:55.537Z,-9.772
2022-12-18T05:44:55.572Z,-9.786
2022-12-18T05:45:55.621Z,-9.772
2022-12-18T05:46:55.719Z,-9.72
2022-12-18T05:47:55.689Z,-9.706
2022-12-18T05:48:55.706Z,-9.723
2022-12-18T05:49:55.732Z,-9.741
2022-12-18T05:50:55.760Z,-9.747
2022-12-18T05:51:55.791Z,-9.761
2022-12-18T05:52:55.829Z,-9.761
2022-12-18T05:53:55.856Z,-9.829
2022-12-18T05:54:55.886Z,-9.835
2022-12-18T05:55:55.907Z,-9.915
2022-12-18T05:56:55.949Z,-9.944
2022-12-18T05:57:55.971Z,-9.915
2022-12-18T05:58:56.009Z,-9.876
2022-12-18T05:59:56.046Z,-9.848
2022-12-18T06:00:56.072Z,-9.833
2022-12-18T06:01:56.181Z,-9.833
2022-12-18T06:02:56.277Z,-9.833
2022-12-18T06:03:56.342Z,-9.819
2022-12-18T06:04:56.229Z,-9.819
2022-12-18T06:05:56.243Z,-9.862
2022-12-18T06:06:56.268Z,-9.885
2022-12-18T06:07:56.296Z,-9.909
2022-12-18T06:08:56.330Z,-9.861
2022-12-18T06:09:56.351Z,-9.846
2022-12-18T06:10:56.390Z,-9.772
2022-12-18T06:11:56.412Z,-9.757
2022-12-18T06:12:56.437Z,-9.81
2022-12-18T06:13:58.628Z,-9.796
2022-12-18T06:14:56.501Z,-9.788
2022-12-18T06:15:56.586Z,-9.787
2022-12-18T06:16:56.570Z,-9.755
2022-12-18T06:17:56.605Z,-9.755
2022-12-18T06:18:56.626Z,-9.784
2022-12-18T06:19:56.656Z,-9.761
2022-12-18T06:20:56.697Z,-9.749
2022-12-18T06:21:56.719Z,-9.792
2022-12-18T06:22:56.775Z,-9.763
2022-12-18T06:23:56.788Z,-9.757
2022-12-18T06:24:56.817Z,-9.757
2022-12-18T06:25:56.838Z,-9.736
2022-12-18T06:26:56.865Z,-9.718
2022-12-18T06:27:56.916Z,-9.69
2022-12-18T06:28:56.949Z,-9.756
2022-12-18T06:29:56.954Z,-9.741
2022-12-18T06:30:56.994Z,-9.739
2022-12-18T06:31:57.128Z,-9.707
2022-12-18T06:32:57.155Z,-9.73
2022-12-18T06:33:57.104Z,-9.701
2022-12-18T06:34:57.149Z,-9.654
2022-12-18T06:36:01.016Z,-9.64
2022-12-18T06:36:57.190Z,-9.626
2022-12-18T06:37:57.255Z,-9.598
2022-12-18T06:38:57.268Z,-9.569
2022-12-18T06:39:57.296Z,-9.583
2022-12-18T06:40:57.326Z,-9.598
2022-12-18T06:41:57.348Z,-9.612
2022-12-18T06:42:57.385Z,-9.598
2022-12-18T06:43:59.968Z,-9.569
2022-12-18T06:44:57.435Z,-9.541
2022-12-18T06:45:57.525Z,-9.519
2022-12-18T06:46:57.493Z,-9.533
2022-12-18T06:47:57.538Z,-9.533
2022-12-18T06:48:57.586Z,-9.533
2022-12-18T06:49:57.586Z,-9.561
2022-12-18T06:50:57.617Z,-9.561
2022-12-18T06:51:57.645Z,-9.539
2022-12-18T06:52:57.680Z,-9.576
2022-12-18T06:53:57.721Z,-9.547
2022-12-18T06:54:57.752Z,-9.561
2022-12-18T06:55:57.774Z,-9.561
2022-12-18T06:56:57.807Z,-9.533
2022-12-18T06:57:57.842Z,-9.538
2022-12-18T06:58:57.854Z,-9.533
2022-12-18T06:59:57.882Z,-9.533
2022-12-18T07:00:57.938Z,-9.529
2022-12-18T07:01:58.116Z,-9.503
2022-12-18T07:02:58.071Z,-9.503
2022-12-18T07:03:58.004Z,-9.503
2022-12-18T07:04:58.036Z,-9.503
2022-12-18T07:05:58.065Z,-9.503
2022-12-18T07:06:58.100Z,-9.474
2022-12-18T07:07:58.128Z,-9.46
2022-12-18T07:08:58.199Z,-9.446
2022-12-18T07:09:58.199Z,-9.432
2022-12-18T07:10:58.238Z,-9.432
2022-12-18T07:11:58.245Z,-9.437
2022-12-18T07:12:58.268Z,-9.466
2022-12-18T07:13:58.308Z,-9.48
2022-12-18T07:14:58.325Z,-9.503
2022-12-18T07:15:58.410Z,-9.503
2022-12-18T07:16:58.469Z,-9.485
2022-12-18T07:17:58.421Z,-9.434
2022-12-18T07:18:58.454Z,-9.383
2022-12-18T07:19:58.487Z,-9.404
2022-12-18T07:20:58.513Z,-9.432
2022-12-18T07:21:58.551Z,-9.432
2022-12-18T07:22:58.581Z,-9.446
2022-12-18T07:23:58.605Z,-9.442
2022-12-18T07:24:58.650Z,-9.425
2022-12-18T07:25:58.672Z,-9.397
2022-12-18T07:26:58.701Z,-9.397
2022-12-18T07:27:58.735Z,-9.36
2022-12-18T07:28:58.758Z,-9.36
2022-12-18T07:29:58.801Z,-9.346
2022-12-18T07:30:58.828Z,-9.374
2022-12-18T07:31:58.950Z,-9.374
2022-12-18T07:32:58.891Z,-9.356
2022-12-18T07:33:58.925Z,-9.356
2022-12-18T07:34:58.957Z,-9.356
2022-12-18T07:35:58.984Z,-9.365
2022-12-18T07:36:59.013Z,-9.337
2022-12-18T07:37:59.072Z,-9.309
2022-12-18T07:38:59.076Z,-9.281
2022-12-18T07:39:59.109Z,-9.248
2022-12-18T07:40:59.142Z,-9.235
2022-12-18T07:41:59.173Z,-9.185
2022-12-18T07:42:59.236Z,-9.185
2022-12-18T07:43:59.236Z,-9.185
2022-12-18T07:44:59.261Z,-9.185
2022-12-18T07:45:59.337Z,-9.157
2022-12-18T07:46:59.334Z,-9.171
2022-12-18T07:47:59.367Z,-9.136
2022-12-18T07:48:59.386Z,-9.105
2022-12-18T07:49:59.446Z,-9.077
2022-12-18T07:50:59.439Z,-9.077
2022-12-18T07:51:59.483Z,-9.049
2022-12-18T07:52:59.498Z,-9.035
2022-12-18T07:53:59.531Z,-9.035
2022-12-18T07:54:59.592Z,-9.022
2022-12-18T07:56:25.056Z,-9.035
2022-12-18T07:56:59.621Z,-9.035
2022-12-18T07:58:01.256Z,-9.035
2022-12-18T07:58:59.678Z,-9.022
2022-12-18T07:59:59.722Z,-8.999
2022-12-18T08:00:59.799Z,-8.999
2022-12-18T08:01:59.980Z,-8.999
2022-12-18T08:02:59.950Z,-8.999
2022-12-18T08:03:59.838Z,-8.972
2022-12-18T08:04:59.860Z,-8.968
2022-12-18T08:05:59.897Z,-8.986
2022-12-18T08:06:59.931Z,-8.986
2022-12-18T08:07:59.949Z,-9
2022-12-18T08:08:59.983Z,-9
2022-12-18T08:10:00.042Z,-8.972
2022-12-18T08:11:00.053Z,-8.951
2022-12-18T08:12:00.085Z,-8.979
2022-12-18T08:13:04.840Z,-8.979
2022-12-18T08:14:00.155Z,-8.942
2022-12-18T08:15:00.184Z,-8.938
2022-12-18T08:16:00.202Z,-8.903
2022-12-18T08:17:00.311Z,-8.903
2022-12-18T08:18:00.278Z,-8.903
2022-12-18T08:19:00.286Z,-8.827
2022-12-18T08:20:00.310Z,-8.855
2022-12-18T08:21:00.346Z,-8.855
2022-12-18T08:22:00.367Z,-8.855
2022-12-18T08:23:00.445Z,-8.883
2022-12-18T08:24:00.435Z,-8.921
2022-12-18T08:25:00.472Z,-8.921
2022-12-18T08:26:00.487Z,-8.921
2022-12-18T08:27:28.345Z,-8.914
2022-12-18T08:28:00.561Z,-8.942
2022-12-18T08:29:00.577Z,-8.956
2022-12-18T08:30:00.610Z,-8.984
2022-12-18T08:31:00.720Z,-8.998
2022-12-18T08:32:00.721Z,-8.984
2022-12-18T08:33:00.689Z,-8.89
2022-12-18T08:34:00.717Z,-8.873
2022-12-18T08:35:00.730Z,-8.859
2022-12-18T08:36:00.768Z,-8.859
2022-12-18T08:37:00.813Z,-8.873
2022-12-18T08:38:00.846Z,-8.873
2022-12-18T08:39:00.861Z,-8.85
2022-12-18T08:40:00.882Z,-8.85
2022-12-18T08:41:00.915Z,-8.878
2022-12-18T08:42:03.075Z,-8.878
2022-12-18T08:43:01.020Z,-8.878
2022-12-18T08:44:01.012Z,-8.893
2022-12-18T08:45:01.045Z,-8.878
2022-12-18T08:46:01.158Z,-8.864
2022-12-18T08:47:01.119Z,-8.846
2022-12-18T08:48:01.155Z,-8.846
2022-12-18T08:49:01.163Z,-8.86
2022-12-18T08:50:01.258Z,-8.846
2022-12-18T08:51:01.226Z,-8.779
2022-12-18T08:52:01.253Z,-8.807
2022-12-18T08:53:01.284Z,-8.793
2022-12-18T08:54:01.319Z,-8.751
2022-12-18T08:55:01.375Z,-8.698
2022-12-18T08:56:01.484Z,-8.675
2022-12-18T08:57:01.415Z,-8.689
2022-12-18T08:58:01.442Z,-8.689
2022-12-18T08:59:01.471Z,-8.711
2022-12-18T09:00:01.496Z,-8.672
2022-12-18T09:01:01.603Z,-8.686
2022-12-18T09:02:01.872Z,-8.686
2022-12-18T09:03:01.743Z,-8.664
2022-12-18T09:04:01.636Z,-8.649
2022-12-18T09:05:01.674Z,-8.649
2022-12-18T09:06:01.703Z,-8.664
2022-12-18T09:07:01.735Z,-8.642
2022-12-18T09:08:01.786Z,-8.665
2022-12-18T09:09:01.793Z,-8.679
2022-12-18T09:10:01.820Z,-8.651
2022-12-18T09:11:01.854Z,-8.582
2022-12-18T09:12:01.891Z,-8.61
2022-12-18T09:13:01.954Z,-8.603
2022-12-18T09:14:01.947Z,-8.603
2022-12-18T09:15:01.981Z,-8.603
2022-12-18T09:16:02.012Z,-8.575
2022-12-18T09:17:02.228Z,-8.561
2022-12-18T09:18:02.081Z,-8.552
2022-12-18T09:19:02.097Z,-8.538
2022-12-18T09:20:02.131Z,-8.524
2022-12-18T09:21:02.165Z,-8.552
2022-12-18T09:22:02.199Z,-8.557
2022-12-18T09:23:02.241Z,-8.543
2022-12-18T09:24:02.265Z,-8.557
2022-12-18T09:25:02.301Z,-8.529
2022-12-18T09:26:02.326Z,-8.515
2022-12-18T09:27:02.358Z,-8.529
2022-12-18T09:28:02.427Z,-8.543
2022-12-18T09:29:02.420Z,-8.505
2022-12-18T09:30:02.443Z,-8.533
2022-12-18T09:31:02.546Z,-8.479
2022-12-18T09:32:02.525Z,-8.479
2022-12-18T09:33:02.667Z,-8.465
2022-12-18T09:34:02.594Z,-8.451
2022-12-18T09:35:02.631Z,-8.514
2022-12-18T09:36:02.660Z,-8.529
2022-12-18T09:37:02.684Z,-8.529
2022-12-18T09:38:02.729Z,-8.557
2022-12-18T09:39:07.561Z,-8.557
2022-12-18T09:40:02.792Z,-8.543
2022-12-18T09:41:02.799Z,-8.479
2022-12-18T09:42:02.833Z,-8.456
2022-12-18T09:43:02.873Z,-8.456
2022-12-18T09:44:02.907Z,-8.477
2022-12-18T09:45:02.979Z,-8.465
2022-12-18T09:46:03.089Z,-8.465
2022-12-18T09:47:02.987Z,-8.465
2022-12-18T09:48:03.011Z,-8.457
2022-12-18T09:49:03.050Z,-8.5
2022-12-18T09:50:03.077Z,-8.543
2022-12-18T09:51:03.570Z,-8.557
2022-12-18T09:52:03.142Z,-8.528
2022-12-18T09:53:03.175Z,-8.491
2022-12-18T09:54:03.208Z,-8.534
2022-12-18T09:55:03.239Z,-8.46
2022-12-18T09:56:03.275Z,-8.431
2022-12-18T09:57:03.292Z,-8.445
2022-12-18T09:58:03.361Z,-8.424
2022-12-18T09:59:03.367Z,-8.406
2022-12-18T10:00:03.394Z,-8.477
2022-12-18T10:01:03.422Z,-8.56
2022-12-18T10:02:03.599Z,-8.56
2022-12-18T10:03:03.678Z,-8.505
2022-12-18T10:04:03.580Z,-8.49
2022-12-18T10:05:03.551Z,-8.476
2022-12-18T10:06:03.599Z,-8.447
2022-12-18T10:07:08.970Z,-8.433
2022-12-18T10:08:03.680Z,-8.419
2022-12-18T10:09:03.690Z,-8.377
2022-12-18T10:10:03.723Z,-8.385
2022-12-18T10:11:03.753Z,-8.385
2022-12-18T10:12:03.781Z,-8.371
2022-12-18T10:13:04.883Z,-8.356
2022-12-18T10:14:03.841Z,-8.342
2022-12-18T10:15:03.868Z,-8.328
2022-12-18T10:16:03.961Z,-8.313
2022-12-18T10:17:03.933Z,-8.342
2022-12-18T10:18:03.978Z,-8.298
2022-12-18T10:19:03.982Z,-8.298
2022-12-18T10:20:04.012Z,-8.284
2022-12-18T10:21:04.046Z,-8.302
2022-12-18T10:22:04.075Z,-8.31
2022-12-18T10:23:04.127Z,-8.295
2022-12-18T10:24:04.148Z,-8.267
2022-12-18T10:25:04.172Z,-8.252
2022-12-18T10:26:04.212Z,-8.224
2022-12-18T10:27:04.233Z,-8.224
2022-12-18T10:28:04.290Z,-8.267
2022-12-18T10:29:05.856Z,-8.238
2022-12-18T10:30:04.358Z,-8.189
2022-12-18T10:31:04.450Z,-8.189
2022-12-18T10:32:04.406Z,-8.161
2022-12-18T10:33:04.445Z,-8.181
2022-12-18T10:34:04.476Z,-8.21
2022-12-18T10:35:04.522Z,-8.195
2022-12-18T10:36:04.591Z,-8.174
2022-12-18T10:37:04.578Z,-8.153
2022-12-18T10:38:04.609Z,-8.153
2022-12-18T10:39:04.641Z,-8.168
2022-12-18T10:40:04.667Z,-8.117
2022-12-18T10:41:04.728Z,-8.132
2022-12-18T10:42:04.736Z,-8.117
2022-12-18T10:43:04.768Z,-8.139
2022-12-18T10:44:04.797Z,-8.11
2022-12-18T10:45:04.829Z,-8.103
2022-12-18T10:46:04.934Z,-8.068
2022-12-18T10:47:08.749Z,-8.025
2022-12-18T10:48:04.943Z,-7.992
2022-12-18T10:49:04.960Z,-8.053
2022-12-18T10:50:04.987Z,-7.999
2022-12-18T10:51:12.675Z,-7.917
2022-12-18T10:52:05.047Z,-7.909
2022-12-18T10:53:05.176Z,-7.923
2022-12-18T10:54:06.273Z,-7.923
2022-12-18T10:55:05.150Z,-7.872
2022-12-18T10:56:05.182Z,-7.9
2022-12-18T10:57:05.214Z,-7.929
2022-12-18T10:58:05.271Z,-7.986
2022-12-18T10:59:05.810Z,-7.986
2022-12-18T11:00:05.336Z,-7.972
2022-12-18T11:01:05.347Z,-8.009
2022-12-18T11:02:05.503Z,-8.009
2022-12-18T11:03:05.622Z,-7.966
2022-12-18T11:04:05.547Z,-7.929
2022-12-18T11:05:05.537Z,-7.929
2022-12-18T11:06:05.573Z,-7.986
2022-12-18T11:07:05.532Z,-7.986
2022-12-18T11:08:05.553Z,-8.025
2022-12-18T11:09:13.231Z,-8.011
2022-12-18T11:10:05.623Z,-7.996
2022-12-18T11:11:05.701Z,-8.06
2022-12-18T11:12:05.684Z,-8.104
2022-12-18T11:13:05.722Z,-8.104
2022-12-18T11:14:05.768Z,-8.114
2022-12-18T11:15:05.783Z,-8.091
2022-12-18T11:16:05.874Z,-8.091
2022-12-18T11:17:26.522Z,-8.048
2022-12-18T11:18:05.903Z,-8.071
2022-12-18T11:19:05.922Z,-8.071
2022-12-18T11:20:05.950Z,-8.056
2022-12-18T11:21:05.978Z,-7.999
2022-12-18T11:22:05.999Z,-8.013
2022-12-18T11:23:06.083Z,-7.95
2022-12-18T11:24:06.061Z,-7.985
2022-12-18T11:25:32.358Z,-7.956
2022-12-18T11:26:06.132Z,-7.878
2022-12-18T11:27:06.164Z,-7.878
2022-12-18T11:28:06.249Z,-7.928
2022-12-18T11:29:06.214Z,-7.95
2022-12-18T11:30:06.265Z,-7.9
2022-12-18T11:31:06.294Z,-7.869
2022-12-18T11:32:06.293Z,-7.826
2022-12-18T11:33:06.329Z,-7.784
2022-12-18T11:34:28.611Z,-7.747
2022-12-18T11:35:06.404Z,-7.789
2022-12-18T11:36:06.431Z,-7.803
2022-12-18T11:37:06.439Z,-7.775
2022-12-18T11:38:06.467Z,-7.789
2022-12-18T11:39:06.505Z,-7.775
2022-12-18T11:40:06.532Z,-7.761
2022-12-18T11:41:06.596Z,-7.696
2022-12-18T11:42:06.603Z,-7.654
2022-12-18T11:43:06.640Z,-7.649
2022-12-18T11:44:06.681Z,-7.689
2022-12-18T11:45:06.713Z,-7.746
2022-12-18T11:46:06.864Z,-7.76
2022-12-18T11:47:06.836Z,-7.739
2022-12-18T11:48:06.831Z,-7.688
2022-12-18T11:49:06.836Z,-7.751
2022-12-18T11:50:06.867Z,-7.765
2022-12-18T11:51:06.889Z,-7.676
2022-12-18T11:52:06.924Z,-7.662
2022-12-18T11:53:06.986Z,-7.557
2022-12-18T11:54:06.978Z,-7.571
2022-12-18T11:55:07.003Z,-7.586
2022-12-18T11:56:07.029Z,-7.592
2022-12-18T11:57:07.064Z,-7.62
2022-12-18T11:58:07.106Z,-7.635
2022-12-18T11:59:07.126Z,-7.635
2022-12-18T12:00:07.184Z,-7.666
2022-12-18T12:01:07.187Z,-7.69
2022-12-18T12:02:07.302Z,-7.693
2022-12-18T12:03:07.304Z,-7.714
2022-12-18T12:04:07.340Z,-7.664
2022-12-18T12:05:07.337Z,-7.542
2022-12-18T12:06:07.358Z,-7.585
2022-12-18T12:07:07.372Z,-7.571
2022-12-18T12:08:07.392Z,-7.548
2022-12-18T12:09:07.422Z,-7.548
2022-12-18T12:10:07.451Z,-7.576
2022-12-18T12:11:07.701Z,-7.54
2022-12-18T12:12:07.527Z,-7.487
2022-12-18T12:13:07.553Z,-7.464
2022-12-18T12:14:07.596Z,-7.521
2022-12-18T12:15:07.624Z,-7.564
2022-12-18T12:16:07.711Z,-7.564
2022-12-18T12:17:07.687Z,-7.512
2022-12-18T12:18:11.304Z,-7.578
2022-12-18T12:19:07.750Z,-7.578
2022-12-18T12:20:07.804Z,-7.613
2022-12-18T12:21:07.804Z,-7.564
2022-12-18T12:22:07.836Z,-7.568
2022-12-18T12:23:07.866Z,-7.568
2022-12-18T12:24:07.894Z,-7.502
2022-12-18T12:25:07.959Z,-7.474
2022-12-18T12:26:07.961Z,-7.445
2022-12-18T12:27:07.972Z,-7.459
2022-12-18T12:28:08.000Z,-7.451
2022-12-18T12:29:10.502Z,-7.465
2022-12-18T12:30:08.778Z,-7.451
2022-12-18T12:31:08.201Z,-7.451